Flight Track Log - Related Links

Times and Time Zones

All times are in EDT time to prevent confusion due to time zone crossing. See the SWA1040 flight status page for this flight to view local times or setup timezone preferences in your user account.

Time Position Orientation Groundspeed Altitude Reporting Facility
EDT Latitude Longitude Course Direction KTS MPH feet Rate Location/Type
Sat 02:36:16 PM 39.1667 -76.7000 201° Southwest 176 203 1,500  Level Potomac TRACON
Sat 02:37:16 PM 39.1333 -76.7167 201° Southwest 221 254 5,300 2,895 Climbing Potomac TRACON
Sat 02:38:10 PM 39.1000 -76.6667 131° Southeast 242 278 7,000 2,263 Climbing Potomac TRACON
Sat 02:39:10 PM 39.0167 -76.6333 163° South 285 328 9,600 3,130 Climbing Potomac TRACON
Sat 02:40:05 PM 38.9500 -76.6333 180° South 307 353 13,000 3,316 Climbing Potomac TRACON
Sat 02:41:04 PM 38.8522 -76.6631 193° South 353 406 15,900 2,750 Climbing Washington Center
Sat 02:42:05 PM 38.7478 -76.6883 191° South 385 443 18,500 1,835 Climbing Washington Center
Sat 02:43:05 PM 38.6433 -76.7106 189° South 390 449 19,600 1,780 Climbing Washington Center
Sat 02:44:03 PM 38.5411 -76.7358 191° South 385 443 22,000 1,210 Climbing Washington Center
Sat 02:45:04 PM 38.4386 -76.7686 194° South 385 443 22,000  Level Washington Center
Sat 02:46:05 PM 38.3381 -76.8014 194° South 380 437 22,000  Level Washington Center
Sat 02:47:03 PM 38.2356 -76.8289 192° South 374 430 22,000  Level Washington Center
Sat 02:48:03 PM 38.1372 -76.8642 196° South 374 430 22,000  Level Washington Center
Sat 02:49:03 PM 38.0328 -76.8967 194° South 379 436 22,000  Level Washington Center
Sat 02:50:04 PM 37.9300 -76.9292 194° South 379 436 22,000  Level Washington Center
Sat 02:51:04 PM 37.8297 -76.9589 193° South 379 436 22,000  Level Washington Center
Sat 02:52:05 PM 37.7272 -76.9911 194° South 379 436 22,000  Level Washington Center
Sat 02:53:03 PM 37.6244 -77.0233 194° South 379 436 22,000  Level Washington Center
Sat 02:54:03 PM 37.5344 -77.0531 195° South 379 436 22,000  Level Washington Center
Sat 02:55:04 PM 37.4214 -77.0875 194° South 384 442 22,000 -295 Level Washington Center
Sat 02:56:05 PM 37.3292 -77.1197 196° South 378 435 21,400 -756 Descending Washington Center
Sat 02:57:03 PM 37.2389 -77.1753 206° Southwest 368 423 20,500 -1,068 Descending Washington Center
Sat 02:58:03 PM 37.1439 -77.2439 210° Southwest 363 418 19,300 -1,091 Descending Washington Center
Sat 02:59:04 PM 37.0619 -77.3044 211° Southwest 358 412 18,300 -793 Descending Washington Center
Sat 03:00:04 PM 36.9817 -77.3650 211° Southwest 353 406 17,700 -645 Descending Washington Center
Sat 03:01:05 PM 36.8994 -77.4256 211° Southwest 347 399 17,000 -350 Descending Washington Center
Sat 03:02:04 PM 36.8233 -77.4833 211° Southwest 341 392 17,000  Level Washington Center
Sat 03:03:05 PM 36.7411 -77.5411 209° Southwest 336 387 17,000  Level Washington Center
Sat 03:04:04 PM 36.6608 -77.6011 211° Southwest 336 387 17,000 50 Level Washington Center
Sat 03:05:05 PM 36.5783 -77.6636 211° Southwest 342 394 17,100  Climbing Washington Center
Sat 03:06:03 PM 36.5000 -77.7367 217° Southwest 353 406 17,000 -51 Descending Washington Center
Sat 03:07:03 PM 36.4317 -77.8225 225° Southwest 353 406 17,000 -942 Level Washington Center
Sat 03:08:04 PM 36.3675 -77.9083 227° Southwest 346 398 15,100 -1,909 Descending Washington Center
Sat 03:08:31 PM 36.3353 -77.9511 227° Southwest 335 386 14,200 -1,900 Descending Washington Center
Sat 03:09:04 PM 36.3031 -77.9942 227° Southwest 341 392 13,200 -1,909 Descending Washington Center
Sat 03:09:37 PM 36.2667 -78.0394 225° Southwest 329 379 12,100 -2,164 Descending Washington Center
Sat 03:10:05 PM 36.2450 -78.0772 235° Southwest 341 392 11,000 -1,612 Descending Washington Center
Sat 03:10:44 PM 36.2125 -78.1356 235° Southwest 315 362 10,300 -900 Descending Washington Center
Sat 03:11:05 PM 36.2036 -78.1583 244° Southwest 321 369 10,100 -1,343 Descending Washington Center
Sat 03:11:51 PM 36.1667 -78.2344 239° Southwest 285 328 8,800 -1,415 Descending Washington Center
Sat 03:12:51 PM 36.1272 -78.3178 240° Southwest 276 318 7,600 -1,368 Descending Washington Center
Sat 03:13:45 PM 36.0922 -78.3886 239° Southwest 271 312 6,200 -1,562 Descending Washington Center
Sat 03:14:04 PM 36.0789 -78.4164 239° Southwest 284 327 5,700 -1,475 Descending Washington Center
Sat 03:14:46 PM 36.0506 -78.4719 238° Southwest 269 310 4,700 -1,400 Descending Washington Center
Sat 03:15:04 PM 36.0417 -78.4897 238° Southwest 284 327 4,300 -1,182 Descending Washington Center
Sat 03:15:52 PM 36.0111 -78.5500 238° Southwest 263 303 3,400 -716 Descending Washington Center
Sat 03:16:53 PM 35.9736 -78.6258 239° Southwest 235 270 3,000 -397 Descending Washington Center
Sat 03:17:53 PM 35.9472 -78.6811 239° Southwest 176 203 2,600 -496 Descending Washington Center
Sat 03:18:54 PM 35.9231 -78.7289 238° Southwest 155 178 2,000 -835 Descending Washington Center
Sat 03:19:48 PM 35.8953 -78.7561 218° Southwest 135 155 1,000 -1,111 Descending Washington Center
Sat 03:21:00 PM 35.8776 -78.7875 270° West  Level Estimated
Sat 03:28:00 PM 35.8776 -78.7875 349° North  Level Estimated

Login

Don't have an account? Register now (free) for customized features, flight alerts, and more!